Terminal Aerodrome Forecast
Issued by NWS Wilmington, NC

Current Version | Previous Version | Text Only | Print | Product List | Glossary On
Versions: 1 2 3 4 5 6 7 8 9 10 11 12 13 14
000
FTUS42 KILM 260520
TAFMYR
TAF
KMYR 260520Z 2606/2706 15006KT P6SM SKC
     FM260900 14005KT P6SM SCT007 BKN030
      TEMPO 2609/2611 4SM BR BKN007 OVC015
     FM261200 14007KT P6SM SCT025 BKN050
     FM261700 16011G20KT P6SM FEW050 SCT120
     FM270200 17012KT P6SM SCT100
      AMD LTD TO CLD VIS AND WIND TIL 261100=

USA.gov is the U.S. government's official web portal to all federal, state and local government web resources and services.